Map

Track Data

SID SEASON NUMBER BASIN SUBBASIN NAME ISO_TIME NATURE LAT LON WMO_WIND WMO_PRES WMO_AGENCY TRACK_TYPE DIST2LAND LANDFALL IFLAG USA_AGENCY USA_ATCF_ID USA_LAT USA_LON USA_RECORD USA_STATUS USA_WIND USA_PRES USA_SSHS USA_R34_NE USA_R34_SE USA_R34_SW USA_R34_NW USA_R50_NE USA_R50_SE USA_R50_SW USA_R50_NW USA_R64_NE USA_R64_SE USA_R64_SW USA_R64_NW USA_POCI USA_ROCI USA_RMW USA_EYE TOKYO_LAT TOKYO_LON TOKYO_GRADE TOKYO_WIND TOKYO_PRES TOKYO_R50_DIR TOKYO_R50_LONG TOKYO_R50_SHORT TOKYO_R30_DIR TOKYO_R30_LONG TOKYO_R30_SHORT TOKYO_LAND CMA_LAT CMA_LON CMA_CAT CMA_WIND CMA_PRES HKO_LAT HKO_LON HKO_CAT HKO_WIND HKO_PRES NEWDELHI_LAT NEWDELHI_LON NEWDELHI_GRADE NEWDELHI_WIND NEWDELHI_PRES NEWDELHI_CI NEWDELHI_DP NEWDELHI_POCI REUNION_LAT REUNION_LON REUNION_TYPE REUNION_WIND REUNION_PRES REUNION_TNUM REUNION_CI REUNION_RMW REUNION_R34_NE REUNION_R34_SE REUNION_R34_SW REUNION_R34_NW REUNION_R50_NE REUNION_R50_SE REUNION_R50_SW REUNION_R50_NW REUNION_R64_NE REUNION_R64_SE REUNION_R64_SW REUNION_R64_NW BOM_LAT BOM_LON BOM_TYPE BOM_WIND BOM_PRES BOM_TNUM BOM_CI BOM_RMW BOM_R34_NE BOM_R34_SE BOM_R34_SW BOM_R34_NW BOM_R50_NE BOM_R50_SE BOM_R50_SW BOM_R50_NW BOM_R64_NE BOM_R64_SE BOM_R64_SW BOM_R64_NW BOM_ROCI BOM_POCI BOM_EYE BOM_POS_METHOD BOM_PRES_METHOD NADI_LAT NADI_LON NADI_CAT NADI_WIND NADI_PRES WELLINGTON_LAT WELLINGTON_LON WELLINGTON_WIND WELLINGTON_PRES DS824_LAT DS824_LON DS824_STAGE DS824_WIND DS824_PRES TD9636_LAT TD9636_LON TD9636_STAGE TD9636_WIND TD9636_PRES TD9635_LAT TD9635_LON TD9635_WIND TD9635_PRES TD9635_ROCI NEUMANN_LAT NEUMANN_LON NEUMANN_CLASS NEUMANN_WIND NEUMANN_PRES MLC_LAT MLC_LON MLC_CLASS MLC_WIND MLC_PRES USA_GUST BOM_GUST BOM_GUST_PER REUNION_GUST REUNION_GUST_PER USA_SEAHGT USA_SEARAD_NE USA_SEARAD_SE USA_SEARAD_SW USA_SEARAD_NW STORM_SPEED STORM_DIR
1929288N32323 1929 68 NA NA NOT_NAMED 1929-10-15 00:00:00 TS 31.8000 -37.4000 50 hurdat_atl main 2014 2014 O_____________ hurdat_atl AL041929 31.8000 -37.4000 TS 50 0 7 247
1929288N32323 1929 68 NA NA NOT_NAMED 1929-10-15 03:00:00 TS 31.6527 -37.8002 main 2051 2050 P_____________ AL041929 31.6527 -37.8002 TS 52 0 7 246
1929288N32323 1929 68 NA NA NOT_NAMED 1929-10-15 06:00:00 TS 31.5000 -38.2000 55 hurdat_atl main 2087 2087 O_____________ hurdat_atl AL041929 31.5000 -38.2000 TS 55 0 7 246
1929288N32323 1929 68 NA NA NOT_NAMED 1929-10-15 09:00:00 TS 31.3424 -38.6000 main 2110 2100 P_____________ AL041929 31.3424 -38.6000 TS 57 0 7 246
1929288N32323 1929 68 NA NA NOT_NAMED 1929-10-15 12:00:00 TS 31.2000 -39.0000 60 hurdat_atl main 2100 2090 O_____________ hurdat_atl AL041929 31.2000 -39.0000 TS 60 0 7 250
1929288N32323 1929 68 NA NA NOT_NAMED 1929-10-15 15:00:00 TS 31.0924 -39.3998 main 2090 2080 P_____________ AL041929 31.0924 -39.3998 TS 60 0 7 254
1929288N32323 1929 68 NA NA NOT_NAMED 1929-10-15 18:00:00 TS 31.0000 -39.8000 60 hurdat_atl main 2080 2071 O_____________ hurdat_atl AL041929 31.0000 -39.8000 TS 60 0 7 254
1929288N32323 1929 68 NA NA NOT_NAMED 1929-10-15 21:00:00 TS 30.8999 -40.2074 main 2071 2062 P_____________ AL041929 30.8999 -40.2074 TS 60 0 7 254
1929288N32323 1929 68 NA NA NOT_NAMED 1929-10-16 00:00:00 TS 30.8000 -40.6000 60 hurdat_atl main 2063 2054 O_____________ hurdat_atl AL041929 30.8000 -40.6000 TS 60 0 7 253
1929288N32323 1929 68 NA NA NOT_NAMED 1929-10-16 03:00:00 TS 30.6998 -40.9574 main 2055 2051 P_____________ AL041929 30.6998 -40.9574 TS 60 0 6 252
1929288N32323 1929 68 NA NA NOT_NAMED 1929-10-16 06:00:00 TS 30.6000 -41.3000 60 hurdat_atl main 2052 2044 O_____________ hurdat_atl AL041929 30.6000 -41.3000 TS 60 0 6 252
1929288N32323 1929 68 NA NA NOT_NAMED 1929-10-16 09:00:00 TS 30.5000 -41.6574 main 2046 2042 P_____________ AL041929 30.5000 -41.6574 TS 60 0 6 252
1929288N32323 1929 68 NA NA NOT_NAMED 1929-10-16 12:00:00 TS 30.4000 -42.0000 60 hurdat_atl main 2044 2040 O_____________ hurdat_atl AL041929 30.4000 -42.0000 TS 60 0 6 251
1929288N32323 1929 68 NA NA NOT_NAMED 1929-10-16 15:00:00 TS 30.2999 -42.3149 main 2042 2034 P_____________ AL041929 30.2999 -42.3149 TS 60 0 6 249
1929288N32323 1929 68 NA NA NOT_NAMED 1929-10-16 18:00:00 TS 30.2000 -42.6000 60 hurdat_atl main 2040 2036 O_____________ hurdat_atl AL041929 30.2000 -42.6000 TS 60 0 5 246
1929288N32323 1929 68 NA NA NOT_NAMED 1929-10-16 21:00:00 TS 30.0924 -42.8575 main 2039 2035 P_____________ AL041929 30.0924 -42.8575 TS 60 0 5 245
1929288N32323 1929 68 NA NA NOT_NAMED 1929-10-17 00:00:00 TS 30.0000 -43.1000 60 hurdat_atl main 2042 2035 O_____________ hurdat_atl AL041929 30.0000 -43.1000 TS 60 0 4 251
1929288N32323 1929 68 NA NA NOT_NAMED 1929-10-17 03:00:00 TS 29.9499 -43.3423 main 2045 2035 P_____________ AL041929 29.9499 -43.3423 TS 60 0 4 257
1929288N32323 1929 68 NA NA NOT_NAMED 1929-10-17 06:00:00 TS 29.9000 -43.6000 60 hurdat_atl main 2035 2031 O_____________ hurdat_atl AL041929 29.9000 -43.6000 TS 60 0 5 250
1929288N32323 1929 68 NA NA NOT_NAMED 1929-10-17 09:00:00 TS 29.7849 -43.8777 main 2035 2031 P_____________ AL041929 29.7849 -43.8777 TS 60 0 6 249
1929288N32323 1929 68 NA NA NOT_NAMED 1929-10-17 12:00:00 TS 29.7000 -44.2000 60 hurdat_atl main 2035 2025 O_____________ hurdat_atl AL041929 29.7000 -44.2000 TS 60 0 6 261
1929288N32323 1929 68 NA NA NOT_NAMED 1929-10-17 15:00:00 TS 29.6899 -44.5704 main 2022 1999 P_____________ AL041929 29.6899 -44.5704 TS 60 0 7 278
1929288N32323 1929 68 NA NA NOT_NAMED 1929-10-17 18:00:00 TS 29.8000 -45.0000 60 hurdat_atl main 1999 1966 O_____________ hurdat_atl AL041929 29.8000 -45.0000 TS 60 0 9 294
1929288N32323 1929 68 NA NA NOT_NAMED 1929-10-17 21:00:00 TS 30.0398 -45.4702 main 1963 1906 P_____________ AL041929 30.0398 -45.4702 TS 60 0 11 305
1929288N32323 1929 68 NA NA NOT_NAMED 1929-10-18 00:00:00 TS 30.4000 -46.0000 60 hurdat_atl main 1906 1847 O_____________ hurdat_atl AL041929 30.4000 -46.0000 TS 60 0 12 308
1929288N32323 1929 68 NA NA NOT_NAMED 1929-10-18 03:00:00 TS 30.8051 -46.6002 main 1847 1778 P_____________ AL041929 30.8051 -46.6002 TS 60 0 14 311
1929288N32323 1929 68 NA NA NOT_NAMED 1929-10-18 06:00:00 TS 31.3000 -47.2000 60 hurdat_atl main 1778 1712 O_____________ hurdat_atl AL041929 31.3000 -47.2000 TS 60 0 14 318
1929288N32323 1929 68 NA NA NOT_NAMED 1929-10-18 09:00:00 TS 31.8771 -47.7155 main 1701 1625 P_____________ AL041929 31.8771 -47.7155 TS 60 0 15 325
1929288N32323 1929 68 NA NA NOT_NAMED 1929-10-18 12:00:00 TS 32.5000 -48.2000 60 hurdat_atl main 1625 1549 O_____________ hurdat_atl AL041929 32.5000 -48.2000 TS 60 0 15 326
1929288N32323 1929 68 NA NA NOT_NAMED 1929-10-18 15:00:00 TS 33.0998 -48.7007 main 1549 1474 P_____________ AL041929 33.0998 -48.7007 TS 60 0 15 325
1929288N32323 1929 68 NA NA NOT_NAMED 1929-10-18 18:00:00 TS 33.7000 -49.2000 60 hurdat_atl main 1474 1399 O_____________ hurdat_atl AL041929 33.7000 -49.2000 TS 60 0 15 325
1929288N32323 1929 68 NA NA NOT_NAMED 1929-10-18 21:00:00 TS 34.2925 -49.7155 main 1399 1325 P_____________ AL041929 34.2925 -49.7155 TS 60 0 15 325
1929288N32323 1929 68 NA NA NOT_NAMED 1929-10-19 00:00:00 TS 34.9000 -50.2000 60 hurdat_atl main 1325 1253 O_____________ hurdat_atl AL041929 34.9000 -50.2000 TS 60 0 15 329
1929288N32323 1929 68 NA NA NOT_NAMED 1929-10-19 03:00:00 TS 35.5424 -50.6378 main 1253 1171 P_____________ AL041929 35.5424 -50.6378 TS 60 0 15 333
1929288N32323 1929 68 NA NA NOT_NAMED 1929-10-19 06:00:00 TS 36.2000 -51.0000 60 hurdat_atl main 1171 1101 O_____________ hurdat_atl AL041929 36.2000 -51.0000 TS 60 0 14 337
1929288N32323 1929 68 NA NA NOT_NAMED 1929-10-19 09:00:00 TS 36.8349 -51.3246 main 1101 1021 P_____________ AL041929 36.8349 -51.3246 TS 60 0 14 343
1929288N32323 1929 68 NA NA NOT_NAMED 1929-10-19 12:00:00 TS 37.5000 -51.5000 60 hurdat_atl main 1021 944 O_____________ hurdat_atl AL041929 37.5000 -51.5000 TS 60 0 14 353
1929288N32323 1929 68 NA NA NOT_NAMED 1929-10-19 15:00:00 TS 38.2343 -51.5336 main 944 859 P_____________ AL041929 38.2343 -51.5336 TS 57 0 15 6
1929288N32323 1929 68 NA NA NOT_NAMED 1929-10-19 18:00:00 ET 39.0000 -51.3000 55 hurdat_atl main 859 789 O_____________ hurdat_atl AL041929 39.0000 -51.3000 EX 55 -4 16 21
1929288N32323 1929 68 NA NA NOT_NAMED 1929-10-19 21:00:00 ET 39.7496 -50.7844 main 791 725 P_____________ AL041929 39.7496 -50.7844 EX 50 -4 18 34
1929288N32323 1929 68 NA NA NOT_NAMED 1929-10-20 00:00:00 ET 40.5000 -50.0000 45 hurdat_atl main 725 679 O_____________ hurdat_atl AL041929 40.5000 -50.0000 EX 45 -4 20 41
1929288N32323 1929 68 NA NA NOT_NAMED 1929-10-20 03:00:00 ET 41.2520 -49.0473 main 677 651 P_____________ AL041929 41.2520 -49.0473 EX 42 -4 21 45
1929288N32323 1929 68 NA NA NOT_NAMED 1929-10-20 06:00:00 ET 42.0000 -48.0000 40 hurdat_atl main 656 O_____________ hurdat_atl AL041929 42.0000 -48.0000 EX 40 -4 22 46

About IBTrACS Database

This database is a web-friendly format of International Best Track Archive for Climate Stewardship (IBTrACS), a global best track data archive curated by NOAA dating back to 1842.

Updated: 2021-10-21